Time;durP1;ratioP1;P1;durP2;ratioP2;P2;SDS_P1;SDS_P2;PMS_P1;PMS_P2;Temp;Humidity;BMP_temperature;BMP_pressure;BME280_temperature;BME280_humidity;BME280_pressure;Samples;Min_cycle;Max_cycle;Signal;HPM_P1;HPM_P2
2023/07/11 00:02:25;;;;;;;44.28;41.08;;;;;;;20.72;100.00;101108.41;5040358;28;20151;-78
2023/07/11 00:04:53;;;;;;;42.63;39.05;;;;;;;20.47;100.00;101109.06;5046171;28;20442;-78
2023/07/11 00:07:19;;;;;;;44.63;40.85;;;;;;;20.77;100.00;101105.72;5044694;28;20045;-78
2023/07/11 00:09:47;;;;;;;46.55;42.95;;;;;;;20.77;100.00;101098.44;5043258;28;20064;-78
2023/07/11 00:12:15;;;;;;;45.88;41.83;;;;;;;20.86;100.00;101106.84;5046745;28;20071;-78
2023/07/11 00:14:42;;;;;;;44.08;40.00;;;;;;;20.53;100.00;101116.16;5043584;28;20059;-78
2023/07/11 00:17:10;;;;;;;45.97;42.47;;;;;;;20.78;100.00;101118.94;5043086;28;20060;-78
2023/07/11 00:19:49;;;;;;;46.08;42.42;;;;;;;20.27;100.00;101113.28;5044523;28;20440;-78
2023/07/11 00:22:19;;;;;;;47.70;40.53;;;;;;;19.97;100.00;101113.06;5043150;28;20048;-78
2023/07/11 00:24:46;;;;;;;49.55;45.15;;;;;;;20.13;100.00;101110.22;5043374;28;20080;-77
2023/07/11 00:27:13;;;;;;;46.42;42.13;;;;;;;20.18;100.00;101114.03;5045629;28;20500;-78
2023/07/11 00:29:40;;;;;;;47.13;42.58;;;;;;;20.32;100.00;101123.28;5047014;28;20503;-78
2023/07/11 00:32:08;;;;;;;51.28;46.97;;;;;;;20.25;100.00;101117.31;5050051;28;20448;-78
2023/07/11 00:34:36;;;;;;;45.58;41.88;;;;;;;20.27;100.00;101109.75;5049705;28;20041;-78
2023/07/11 00:37:05;;;;;;;43.78;40.28;;;;;;;20.28;100.00;101106.00;5049597;28;20045;-78
2023/07/11 00:39:35;;;;;;;46.50;42.58;;;;;;;19.89;100.00;101117.06;5050345;28;20132;-78
2023/07/11 00:42:02;;;;;;;46.13;41.63;;;;;;;20.00;100.00;101120.63;5049372;28;20053;-78
2023/07/11 00:44:29;;;;;;;45.92;41.90;;;;;;;19.86;100.00;101123.78;5050453;28;20509;-78
2023/07/11 00:46:56;;;;;;;47.38;42.88;;;;;;;19.49;100.00;101128.31;5049547;28;20049;-77
2023/07/11 00:49:24;;;;;;;43.15;38.65;;;;;;;19.49;100.00;101125.59;5049756;28;20045;-78
2023/07/11 00:51:56;;;;;;;45.05;41.15;;;;;;;19.55;100.00;101124.59;5049281;28;20044;-77
2023/07/11 00:54:33;;;;;;;53.50;48.92;;;;;;;19.58;100.00;101124.06;5045382;28;20049;-78
2023/07/11 00:57:03;;;;;;;50.70;46.08;;;;;;;19.68;100.00;101133.06;5049386;28;20079;-78
2023/07/11 00:59:30;;;;;;;45.58;41.58;;;;;;;19.84;100.00;101138.59;5044830;28;20052;-78
2023/07/11 01:02:02;;;;;;;46.70;42.60;;;;;;;19.77;100.00;101143.38;5043775;28;20509;-78
2023/07/11 01:04:30;;;;;;;48.15;43.40;;;;;;;19.60;100.00;101140.78;5041307;28;20045;-78
2023/07/11 01:06:57;;;;;;;45.95;41.53;;;;;;;19.72;100.00;101133.38;5042398;28;20440;-78
2023/07/11 01:09:26;;;;;;;56.00;43.13;;;;;;;19.68;100.00;101130.38;5041528;28;20416;-78
2023/07/11 01:11:56;;;;;;;46.75;42.42;;;;;;;19.84;100.00;101139.41;5043085;28;20096;-78
2023/07/11 01:14:25;;;;;;;45.00;40.85;;;;;;;19.72;100.00;101117.19;5045405;28;20049;-78
2023/07/11 01:16:53;;;;;;;45.53;41.03;;;;;;;19.31;100.00;101132.16;5049641;28;20057;-78
2023/07/11 01:19:22;;;;;;;48.78;43.60;;;;;;;19.46;100.00;101124.22;5048457;28;20060;-78
2023/07/11 01:21:50;;;;;;;51.67;47.03;;;;;;;19.61;100.00;101113.59;5049044;28;20606;-78
2023/07/11 01:24:17;;;;;;;48.60;44.20;;;;;;;19.25;100.00;101120.53;5049392;28;20041;-78
2023/07/11 01:26:44;;;;;;;50.38;45.65;;;;;;;19.42;100.00;101125.78;5049225;28;20048;-78
2023/07/11 01:29:12;;;;;;;50.45;45.67;;;;;;;19.27;100.00;101121.06;5049142;28;20045;-78
2023/07/11 01:31:38;;;;;;;48.03;43.47;;;;;;;19.00;100.00;101131.81;5049270;28;20060;-78
2023/07/11 01:34:08;;;;;;;47.17;42.90;;;;;;;19.68;100.00;101129.56;5049379;28;20744;-79
2023/07/11 01:36:35;;;;;;;49.00;44.40;;;;;;;19.74;100.00;101120.47;5049583;28;20041;-79
2023/07/11 01:39:06;;;;;;;47.30;42.58;;;;;;;18.98;100.00;101129.38;5049176;28;20072;-79
2023/07/11 01:41:33;;;;;;;47.80;42.90;;;;;;;19.49;100.00;101118.34;5049029;28;20508;-79
2023/07/11 01:44:00;;;;;;;44.45;40.10;;;;;;;19.22;100.00;101124.53;5048155;28;20037;-79
2023/07/11 01:46:27;;;;;;;43.25;39.15;;;;;;;19.53;100.00;101108.66;5043677;28;20143;-79
2023/07/11 01:48:54;;;;;;;44.65;40.30;;;;;;;19.53;100.00;101103.28;5045088;28;20049;-79
2023/07/11 01:51:21;;;;;;;41.22;36.60;;;;;;;19.52;100.00;101096.28;5043207;28;20052;-79
2023/07/11 01:53:48;;;;;;;44.58;40.22;;;;;;;19.64;100.00;101101.50;5043235;28;20053;-79
2023/07/11 01:56:16;;;;;;;43.05;38.92;;;;;;;19.72;100.00;101102.91;5048791;28;20098;-79
2023/07/11 01:58:43;;;;;;;46.22;41.55;;;;;;;19.68;100.00;101102.63;5048655;28;20053;-79
2023/07/11 02:01:10;;;;;;;44.67;40.13;;;;;;;19.67;100.00;101101.00;5048355;28;20055;-79
2023/07/11 02:03:37;;;;;;;46.97;42.58;;;;;;;19.23;100.00;101098.41;5048482;28;20061;-79
2023/07/11 02:06:04;;;;;;;57.00;51.78;;;;;;;18.96;100.00;101109.16;5047013;28;20051;-79
2023/07/11 02:08:31;;;;;;;55.88;50.50;;;;;;;19.46;100.00;101097.28;5051444;28;20064;-79
2023/07/11 02:10:58;;;;;;;52.40;47.08;;;;;;;19.18;100.00;101103.75;5052123;28;20060;-79
2023/07/11 02:13:26;;;;;;;47.42;42.58;;;;;;;19.27;100.00;101106.78;5051469;28;20060;-79
2023/07/11 02:15:53;;;;;;;48.05;43.55;;;;;;;19.65;100.00;101106.66;5051865;28;20566;-79
2023/07/11 02:18:20;;;;;;;46.67;41.90;;;;;;;19.77;100.00;101103.78;5051725;28;20432;-79
2023/07/11 02:20:47;;;;;;;53.20;48.15;;;;;;;19.86;100.00;101101.41;5052301;28;20045;-78
2023/07/11 02:23:16;;;;;;;49.20;44.45;;;;;;;19.26;100.00;101097.09;5052221;28;20049;-78
2023/07/11 02:25:43;;;;;;;51.72;46.67;;;;;;;19.11;100.00;101098.56;5048711;28;20120;-78
2023/07/11 02:28:10;;;;;;;46.83;42.40;;;;;;;19.59;100.00;101114.91;5046328;28;20505;-78
2023/07/11 02:30:38;;;;;;;44.97;40.63;;;;;;;19.41;100.00;101105.31;5046744;28;20049;-77
2023/07/11 02:33:05;;;;;;;48.05;43.42;;;;;;;18.98;100.00;101126.69;5047532;28;20053;-78
2023/07/11 02:35:32;;;;;;;43.72;39.10;;;;;;;19.56;100.00;101120.81;5047895;28;20040;-78
2023/07/11 02:38:00;;;;;;;44.53;40.08;;;;;;;19.77;100.00;101124.53;5046445;28;20421;-78
2023/07/11 02:40:27;;;;;;;41.95;38.20;;;;;;;19.70;100.00;101118.53;5045002;28;20140;-77
2023/07/11 02:42:54;;;;;;;43.53;39.50;;;;;;;19.79;100.00;101125.06;5045336;28;20048;-78
2023/07/11 02:45:21;;;;;;;45.20;40.80;;;;;;;19.47;100.00;101114.25;5045885;28;20049;-78
2023/07/11 02:47:49;;;;;;;44.03;39.47;;;;;;;19.25;100.00;101125.91;5048989;28;20044;-77
2023/07/11 02:50:16;;;;;;;45.83;41.10;;;;;;;19.27;100.00;101120.25;5045129;28;20424;-78
2023/07/11 02:52:44;;;;;;;46.78;42.00;;;;;;;19.00;100.00;101131.81;5043984;28;20064;-78
2023/07/11 02:55:10;;;;;;;45.50;41.30;;;;;;;19.53;100.00;101132.09;5047025;28;20044;-78
2023/07/11 02:57:40;;;;;;;46.58;42.08;;;;;;;19.71;100.00;101117.47;5045960;28;20456;-77
2023/07/11 03:00:09;;;;;;;43.05;38.95;;;;;;;19.83;100.00;101118.91;5042993;28;20045;-77
2023/07/11 03:02:36;;;;;;;43.53;39.33;;;;;;;19.20;100.00;101121.28;5043482;28;20065;-78
2023/07/11 03:05:05;;;;;;;43.83;39.10;;;;;;;19.70;100.00;101105.03;5046944;28;20048;-78
2023/07/11 03:07:33;;;;;;;40.58;36.47;;;;;;;19.72;100.00;101105.63;5041372;28;20053;-77
2023/07/11 03:10:00;;;;;;;42.38;38.58;;;;;;;19.62;100.00;101106.31;5045024;28;20132;-78
2023/07/11 03:12:27;;;;;;;42.67;38.85;;;;;;;19.70;100.00;101116.66;5042855;28;20057;-78
2023/07/11 03:14:54;;;;;;;41.53;37.88;;;;;;;19.68;100.00;101119.59;5042908;28;20448;-79
2023/07/11 03:17:21;;;;;;;40.83;37.28;;;;;;;19.92;100.00;101119.25;5047285;28;20060;-79
2023/07/11 03:19:48;;;;;;;39.88;36.25;;;;;;;19.59;100.00;101120.31;5050627;28;20118;-78
2023/07/11 03:22:18;;;;;;;48.35;39.67;;;;;;;19.55;100.00;101120.00;5050742;28;20153;-77
2023/07/11 03:24:46;;;;;;;42.78;39.03;;;;;;;19.74;100.00;101120.47;5042789;28;20053;-78
2023/07/11 03:27:13;;;;;;;43.38;39.08;;;;;;;19.70;100.00;101124.75;5051400;28;20512;-77
2023/07/11 03:29:40;;;;;;;41.83;38.25;;;;;;;19.65;100.00;101128.19;5050392;28;20040;-77
2023/07/11 03:32:11;;;;;;;42.35;38.60;;;;;;;19.79;100.00;101135.84;5045378;28;20041;-78
2023/07/11 03:34:38;;;;;;;45.05;41.10;;;;;;;19.73;100.00;101131.47;5040372;28;20046;-78
2023/07/11 03:37:05;;;;;;;65.22;60.28;;;;;;;19.55;100.00;101128.09;5047601;28;20482;-81
2023/07/11 03:39:35;;;;;;;53.67;49.35;;;;;;;19.79;100.00;101117.81;5046661;28;20056;-81
2023/07/11 03:42:02;;;;;;;48.22;44.63;;;;;;;19.80;100.00;101119.44;5044777;28;20060;-78
2023/07/11 03:44:29;;;;;;;48.08;44.22;;;;;;;19.98;100.00;101114.72;5040922;28;20056;-79
2023/07/11 03:46:56;;;;;;;49.35;44.92;;;;;;;19.95;100.00;101132.22;5045292;28;20052;-79
2023/07/11 03:49:23;;;;;;;48.30;44.47;;;;;;;19.97;100.00;101116.59;5049436;28;20048;-79
2023/07/11 03:51:50;;;;;;;51.20;47.45;;;;;;;20.00;100.00;101126.88;5046895;28;20049;-78
2023/07/11 03:54:17;;;;;;;41.35;38.10;;;;;;;20.17;100.00;101123.19;5044309;28;20051;-78
2023/07/11 03:56:47;;;;;;;43.63;40.13;;;;;;;20.27;100.00;101118.69;5049643;28;20045;-78
2023/07/11 03:59:13;;;;;;;42.28;39.08;;;;;;;20.18;100.00;101130.19;5047153;28;20056;-79
2023/07/11 04:01:40;;;;;;;41.25;37.42;;;;;;;20.18;100.00;101130.19;5047124;28;20055;-79
2023/07/11 04:04:07;;;;;;;44.28;40.28;;;;;;;20.02;100.00;101127.41;5049064;28;20052;-79
2023/07/11 04:06:34;;;;;;;45.55;41.65;;;;;;;19.98;100.00;101131.69;5046401;28;20078;-79
2023/07/11 04:09:01;;;;;;;43.78;39.97;;;;;;;20.24;100.00;101121.91;5048580;28;20073;-78
2023/07/11 04:11:28;;;;;;;43.05;39.67;;;;;;;20.43;100.00;101121.47;5042894;28;20049;-79
2023/07/11 04:13:57;;;;;;;42.38;38.65;;;;;;;20.33;100.00;101117.66;5046212;28;20436;-79
2023/07/11 04:16:24;;;;;;;42.88;39.28;;;;;;;20.46;100.00;101105.56;5046252;28;20048;-78
2023/07/11 04:18:51;;;;;;;43.38;39.92;;;;;;;20.47;100.00;101109.88;5045705;28;20045;-79
2023/07/11 04:21:18;;;;;;;41.72;38.13;;;;;;;20.45;100.00;101109.31;5047573;28;20050;-79
2023/07/11 04:23:45;;;;;;;42.63;39.42;;;;;;;20.60;100.00;101103.22;5048028;28;20045;-79
2023/07/11 04:26:12;;;;;;;43.15;39.95;;;;;;;20.53;100.00;101111.56;5040748;28;20128;-79
2023/07/11 04:28:39;;;;;;;41.00;37.53;;;;;;;20.65;100.00;101119.44;5048632;28;20041;-79
2023/07/11 04:31:08;;;;;;;40.80;37.15;;;;;;;20.88;100.00;101129.00;5048646;28;20037;-79
2023/07/11 04:33:35;;;;;;;41.75;38.33;;;;;;;20.94;100.00;101129.81;5049043;28;20053;-79
2023/07/11 04:36:12;;;;;;;41.85;38.55;;;;;;;21.18;100.00;101124.72;5048826;28;20047;-79
2023/07/11 04:38:40;;;;;;;41.88;38.30;;;;;;;21.18;100.00;101117.47;5044164;28;20060;-79
2023/07/11 04:41:08;;;;;;;40.30;37.00;;;;;;;21.22;100.00;101107.75;5048813;28;20044;-78
2023/07/11 04:43:34;;;;;;;40.95;37.55;;;;;;;21.48;100.00;101121.28;5049320;28;20060;-78
2023/07/11 04:46:02;;;;;;;39.38;36.13;;;;;;;21.34;100.00;101123.69;5042034;28;20420;-79
2023/07/11 04:48:31;;;;;;;37.20;33.58;;;;;;;21.39;100.00;101129.16;5039287;28;20046;-79
2023/07/11 04:50:59;;;;;;;37.92;34.85;;;;;;;21.46;100.00;101129.69;5044697;28;20069;-79
2023/07/11 04:53:28;;;;;;;36.85;33.72;;;;;;;21.85;100.00;101120.25;5048951;28;20049;-79
2023/07/11 04:55:58;;;;;;;34.15;31.30;;;;;;;21.86;100.00;101127.25;5047501;28;20049;-79
2023/07/11 04:58:26;;;;;;;36.42;33.33;;;;;;;22.02;100.00;101131.56;5040342;28;20428;-79
2023/07/11 05:00:59;;;;;;;36.33;33.30;;;;;;;22.10;100.00;101125.63;5046933;28;20052;-79
2023/07/11 05:03:26;;;;;;;37.70;34.70;;;;;;;22.20;100.00;101134.81;5047186;28;20052;-79
2023/07/11 05:05:54;;;;;;;33.45;30.73;;;;;;;22.33;100.00;101126.13;5045445;28;20414;-79
2023/07/11 05:08:21;;;;;;;33.22;30.33;;;;;;;22.25;100.00;101124.00;5044860;28;20048;-79
2023/07/11 05:10:59;;;;;;;32.28;29.58;;;;;;;22.50;100.00;101125.81;5046321;28;20047;-78
2023/07/11 05:13:26;;;;;;;33.97;31.13;;;;;;;22.61;100.00;101127.41;5045692;28;20045;-79
2023/07/11 05:15:59;;;;;;;31.90;28.83;;;;;;;22.75;100.00;101136.53;5048185;28;20045;-79
2023/07/11 05:18:26;;;;;;;31.40;28.45;;;;;;;22.78;100.00;101125.16;5046161;28;20045;-79
2023/07/11 05:20:55;;;;;;;30.63;27.85;;;;;;;22.91;100.00;101128.38;5042271;28;20500;-79
2023/07/11 05:23:23;;;;;;;29.50;27.17;;;;;;;23.28;100.00;101117.88;5041633;28;20136;-79
2023/07/11 05:25:50;;;;;;;28.75;26.33;;;;;;;23.38;100.00;101129.72;5039839;28;20044;-79
2023/07/11 05:28:17;;;;;;;28.40;26.23;;;;;;;23.30;100.00;101117.59;5046130;28;20072;-79
2023/07/11 05:30:44;;;;;;;30.23;27.73;;;;;;;23.53;100.00;101122.28;5041539;28;20041;-79
2023/07/11 05:33:11;;;;;;;27.55;25.30;;;;;;;23.88;100.00;101116.91;5042332;28;20063;-79
2023/07/11 05:36:32;;;;;;;26.77;24.75;;;;;;;23.92;100.00;101129.59;5033702;28;20046;-79
2023/07/11 05:39:02;;;;;;;24.88;22.73;;;;;;;23.83;100.00;101133.22;5040466;28;20064;-79
2023/07/11 05:41:29;;;;;;;27.55;25.17;;;;;;;24.01;100.00;101124.38;5050218;28;20373;-79
2023/07/11 05:43:56;;;;;;;26.80;24.35;;;;;;;24.00;100.00;101120.84;5046686;28;20060;-79
2023/07/11 05:46:24;;;;;;;26.42;23.98;;;;;;;24.18;100.00;101115.78;5048244;28;20049;-79
2023/07/11 05:48:52;;;;;;;28.10;25.63;;;;;;;24.37;100.00;101115.84;5050881;28;20049;-79
2023/07/11 05:51:19;;;;;;;25.67;23.48;;;;;;;24.48;100.00;101119.28;5052350;28;20045;-79
2023/07/11 05:53:48;;;;;;;24.30;22.13;;;;;;;24.33;100.00;101121.06;5038249;28;20053;-79
2023/07/11 05:56:17;;;;;;;27.88;25.20;;;;;;;24.49;100.00;101129.06;5051446;28;20409;-78
2023/07/11 05:58:45;;;;;;;26.27;24.27;;;;;;;24.43;100.00;101139.16;5050318;28;20516;-79
2023/07/11 06:01:13;;;;;;;26.00;24.00;;;;;;;24.40;100.00;101123.41;5048524;28;20481;-79
2023/07/11 06:03:41;;;;;;;23.95;22.08;;;;;;;24.30;100.00;101129.78;5046174;28;20061;-79
2023/07/11 06:06:09;;;;;;;29.52;27.08;;;;;;;24.62;100.00;101122.91;5052116;28;20083;-81
2023/07/11 06:08:36;;;;;;;30.25;27.55;;;;;;;24.67;100.00;101128.28;5044558;28;20114;-78
2023/07/11 06:11:05;;;;;;;29.80;27.35;;;;;;;24.70;100.00;101133.16;5043392;28;20044;-79
2023/07/11 06:13:36;;;;;;;28.92;26.83;;;;;;;24.39;100.00;101138.91;5045072;28;20064;-77
2023/07/11 06:16:05;;;;;;;30.15;27.67;;;;;;;24.60;100.00;101133.25;5051237;28;20056;-78
2023/07/11 06:18:37;;;;;;;27.00;24.98;;;;;;;24.63;100.00;101124.53;5043620;28;20623;-78
2023/07/11 06:21:05;;;;;;;27.23;25.23;;;;;;;24.86;100.00;101139.19;5046192;28;20037;-78
2023/07/11 06:23:32;;;;;;;26.98;24.58;;;;;;;24.60;100.00;101131.38;5045642;28;20520;-79
2023/07/11 06:25:58;;;;;;;28.35;26.25;;;;;;;24.83;100.00;101139.75;5043344;28;20052;-79
2023/07/11 06:28:26;;;;;;;27.77;25.40;;;;;;;25.19;100.00;101133.88;5050869;28;20076;-78
2023/07/11 06:30:56;;;;;;;34.75;32.33;;;;;;;25.26;100.00;101134.31;5050020;28;20075;-79
2023/07/11 06:33:23;;;;;;;27.95;25.92;;;;;;;25.25;100.00;101133.50;5044320;28;20056;-78
2023/07/11 06:35:51;;;;;;;28.58;26.48;;;;;;;25.26;100.00;101135.09;5049260;28;20045;-79
2023/07/11 06:38:19;;;;;;;28.67;26.05;;;;;;;25.29;100.00;101122.84;5046459;28;20068;-79
2023/07/11 06:40:49;;;;;;;31.65;29.33;;;;;;;24.96;100.00;101130.88;5048986;28;20053;-78
2023/07/11 06:43:16;;;;;;;31.77;29.38;;;;;;;25.13;100.00;101131.22;5045264;28;20068;-78
2023/07/11 06:45:47;;;;;;;31.88;29.15;;;;;;;25.27;100.00;101130.50;5046336;28;20053;-78
2023/07/11 06:48:19;;;;;;;31.92;29.42;;;;;;;25.45;100.00;101131.59;5048902;28;20053;-78
2023/07/11 06:50:48;;;;;;;30.50;28.17;;;;;;;25.38;100.00;101126.50;5045209;28;20068;-78
2023/07/11 06:53:15;;;;;;;28.67;25.92;;;;;;;25.37;100.00;101119.47;5049348;28;20536;-78
2023/07/11 06:55:46;;;;;;;25.65;23.52;;;;;;;25.65;100.00;101117.66;5045237;28;20074;-78
2023/07/11 06:58:14;;;;;;;26.77;24.42;;;;;;;25.40;100.00;101118.06;5049757;28;20094;-78
2023/07/11 07:00:41;;;;;;;28.95;26.40;;;;;;;25.78;100.00;101107.91;5045600;28;20053;-79
2023/07/11 07:03:11;;;;;;;27.52;24.65;;;;;;;25.57;100.00;101105.56;5050795;28;20052;-79
2023/07/11 07:05:39;;;;;;;27.70;25.23;;;;;;;25.79;100.00;101102.19;5045213;28;20049;-79
2023/07/11 07:08:06;;;;;;;26.65;24.35;;;;;;;25.77;100.00;101112.53;5044203;28;20049;-80
2023/07/11 07:10:33;;;;;;;33.45;30.88;;;;;;;25.88;100.00;101110.50;5042040;28;20497;-78
2023/07/11 07:13:00;;;;;;;27.73;25.20;;;;;;;25.89;100.00;101112.09;5037386;28;20442;-78
2023/07/11 07:15:27;;;;;;;30.15;27.63;;;;;;;26.22;100.00;101101.97;5037038;28;20060;-79
2023/07/11 07:17:54;;;;;;;26.65;24.45;;;;;;;26.17;100.00;101104.81;5044684;28;20041;-78
2023/07/11 07:20:20;;;;;;;28.73;26.42;;;;;;;26.54;100.00;101113.06;5040791;28;20399;-80
2023/07/11 07:22:49;;;;;;;28.15;25.80;;;;;;;26.70;100.00;101117.91;5044376;28;20539;-79
2023/07/11 07:25:19;;;;;;;29.45;27.00;;;;;;;26.49;100.00;101111.28;5040727;28;20137;-79
2023/07/11 07:27:47;;;;;;;27.48;24.92;;;;;;;26.89;100.00;101106.88;5041043;28;20102;-79
2023/07/11 07:30:14;;;;;;;26.05;23.85;;;;;;;26.91;100.00;101109.31;5042628;28;20044;-79
2023/07/11 07:32:41;;;;;;;26.13;23.80;;;;;;;26.95;100.00;101105.66;5042288;28;20071;-78
2023/07/11 07:35:08;;;;;;;27.23;24.95;;;;;;;26.83;100.00;101102.66;5039666;28;20446;-78
2023/07/11 07:37:36;;;;;;;28.52;25.77;;;;;;;27.32;100.00;101102.94;5046873;28;20049;-78
2023/07/11 07:40:06;;;;;;;26.40;23.83;;;;;;;27.02;100.00;101088.91;5048407;28;20072;-78
2023/07/11 07:42:33;;;;;;;27.40;25.10;;;;;;;27.22;100.00;101100.47;5046780;28;20045;-78
2023/07/11 07:45:00;;;;;;;27.13;24.70;;;;;;;27.19;100.00;101096.41;5045305;28;20049;-78
2023/07/11 07:47:26;;;;;;;25.98;23.45;;;;;;;27.46;100.00;101089.25;5046902;28;20041;-78
2023/07/11 07:49:55;;;;;;;27.20;24.92;;;;;;;27.60;100.00;101074.41;5044943;28;20049;-78
2023/07/11 07:52:22;;;;;;;28.25;25.50;;;;;;;27.34;100.00;101082.41;5049414;28;20133;-78
2023/07/11 07:54:48;;;;;;;27.92;25.45;;;;;;;27.37;100.00;101081.78;5047787;28;20059;-79
2023/07/11 07:57:17;;;;;;;26.88;24.40;;;;;;;27.69;100.00;101068.22;5049013;28;20053;-78
2023/07/11 07:59:44;;;;;;;27.80;25.20;;;;;;;27.75;100.00;101073.22;5043715;28;20444;-78
2023/07/11 08:02:11;;;;;;;28.35;25.80;;;;;;;27.82;100.00;101079.06;5047872;28;20049;-80
2023/07/11 08:04:38;;;;;;;27.63;24.83;;;;;;;27.76;100.00;101068.56;5038609;28;20500;-80
2023/07/11 08:07:06;;;;;;;27.02;24.30;;;;;;;27.91;100.00;101075.56;5038338;28;20060;-80
2023/07/11 08:09:33;;;;;;;27.55;25.15;;;;;;;27.86;100.00;101071.03;5046827;28;20057;-79
2023/07/11 08:12:05;;;;;;;27.92;25.33;;;;;;;27.63;100.00;101068.34;5046823;28;20044;-80
2023/07/11 08:14:36;;;;;;;26.88;24.60;;;;;;;28.22;100.00;101070.06;5046135;28;20053;-78
2023/07/11 08:17:04;;;;;;;25.50;23.25;;;;;;;28.43;100.00;101067.56;5043826;28;20421;-78
2023/07/11 08:19:30;;;;;;;25.20;23.08;;;;;;;28.67;100.00;101084.34;5044405;28;20588;-78
2023/07/11 08:21:59;;;;;;;24.88;22.98;;;;;;;28.61;100.00;101074.69;5043650;28;20041;-78
2023/07/11 08:24:27;;;;;;;26.27;23.85;;;;;;;28.18;100.00;101075.34;5046391;28;20523;-78
2023/07/11 08:26:54;;;;;;;25.13;23.05;;;;;;;28.38;100.00;101078.63;5039854;28;20534;-78
2023/07/11 08:29:21;;;;;;;25.00;22.85;;;;;;;28.44;100.00;101074.63;5042201;28;20064;-78
2023/07/11 08:31:49;;;;;;;24.42;22.30;;;;;;;28.51;100.00;101075.00;5047401;28;20040;-78
2023/07/11 08:34:16;;;;;;;26.58;23.67;;;;;;;28.76;100.00;101067.94;5044840;28;20052;-78
2023/07/11 08:36:46;;;;;;;25.35;23.25;;;;;;;28.75;100.00;101069.09;5042458;28;20053;-78
2023/07/11 08:39:13;;;;;;;26.73;24.30;;;;;;;28.70;100.00;101069.22;5041237;28;20049;-79
2023/07/11 08:41:45;;;;;;;27.17;24.58;;;;;;;29.16;100.00;101062.34;5044397;28;20094;-78
2023/07/11 08:44:17;;;;;;;28.00;25.20;;;;;;;28.81;100.00;101061.53;5042329;28;20084;-78
2023/07/11 08:46:53;;;;;;;25.55;23.38;;;;;;;28.86;100.00;101058.63;5041950;28;20041;-78
2023/07/11 08:49:25;;;;;;;25.92;23.52;;;;;;;29.44;100.00;101041.72;5044214;28;20405;-78
2023/07/11 08:51:57;;;;;;;25.63;22.75;;;;;;;29.37;100.00;101043.34;5042467;28;20047;-78
2023/07/11 08:54:29;;;;;;;25.95;23.63;;;;;;;29.31;100.00;101050.09;5044953;28;20048;-78
2023/07/11 08:56:59;;;;;;;25.73;23.48;;;;;;;29.43;100.00;101052.97;5045495;28;20052;-78
2023/07/11 08:59:34;;;;;;;28.60;24.15;;;;;;;29.17;100.00;101055.78;5042569;28;20440;-78
2023/07/11 09:02:16;;;;;;;27.27;24.60;;;;;;;29.81;100.00;101057.75;5042531;28;20053;-78
2023/07/11 09:04:45;;;;;;;;;;;;;;;29.63;100.00;101046.84;5044254;28;20049;-78
2023/07/11 09:07:22;;;;;;;28.77;26.13;;;;;;;29.02;100.00;101043.41;5038792;28;19928;-78
2023/07/11 09:09:49;;;;;;;27.75;25.30;;;;;;;29.80;100.00;101043.22;5037530;28;20046;-78
2023/07/11 09:12:26;;;;;;;28.80;26.13;;;;;;;29.88;100.00;101041.59;5043643;28;20060;-78
2023/07/11 09:15:03;;;;;;;28.73;26.42;;;;;;;30.06;100.00;101037.66;5042610;28;20137;-79
2023/07/11 09:17:51;;;;;;;26.75;24.15;;;;;;;30.04;100.00;101023.47;5035997;28;20064;-80
2023/07/11 09:20:27;;;;;;;26.77;24.23;;;;;;;29.77;100.00;101024.72;5043818;28;20042;-80
2023/07/11 09:23:02;;;;;;;30.25;27.40;;;;;;;30.55;100.00;101020.78;5035421;28;20052;-80
2023/07/11 09:25:33;;;;;;;24.95;22.65;;;;;;;30.44;100.00;101019.56;5046548;28;20053;-80
2023/07/11 09:28:06;;;;;;;25.53;23.40;;;;;;;30.00;100.00;101017.06;5047314;28;20484;-80
2023/07/11 09:30:37;;;;;;;28.08;25.50;;;;;;;29.62;100.00;101022.53;5038394;28;20478;-79
2023/07/11 09:33:17;;;;;;;27.27;24.98;;;;;;;30.03;100.00;101015.59;5040431;28;20047;-80
2023/07/11 09:35:46;;;;;;;26.92;24.83;;;;;;;30.32;100.00;101017.56;5037630;28;20056;-80
2023/07/11 09:38:19;;;;;;;27.73;25.10;;;;;;;30.28;100.00;101019.34;5041408;28;20072;-80
2023/07/11 09:40:51;;;;;;;29.05;26.50;;;;;;;29.72;100.00;101013.19;5040602;28;20049;-79
2023/07/11 09:43:18;;;;;;;36.40;33.67;;;;;;;30.26;100.00;101008.75;5043536;28;20044;-80
2023/07/11 09:45:48;;;;;;;36.30;33.33;;;;;;;30.37;100.00;101003.66;5040988;28;20424;-79
2023/07/11 09:48:20;;;;;;;36.92;34.20;;;;;;;30.34;100.00;101007.84;5048407;28;20048;-80
2023/07/11 09:51:04;;;;;;;39.80;36.40;;;;;;;30.38;100.00;101009.94;5039217;28;20068;-80
2023/07/11 09:53:31;;;;;;;40.17;37.38;;;;;;;30.79;100.00;101009.16;5048513;28;20041;-79
2023/07/11 09:56:00;;;;;;;49.38;37.47;;;;;;;30.58;100.00;101009.16;5043962;28;20094;-79
2023/07/11 09:58:30;;;;;;;39.28;36.38;;;;;;;30.16;100.00;101005.53;5046362;28;20451;-80
2023/07/11 10:01:01;;;;;;;38.90;35.40;;;;;;;30.96;100.00;101000.00;5040817;28;20049;-80
2023/07/11 10:03:34;;;;;;;35.80;32.10;;;;;;;30.98;100.00;101009.47;5038442;28;20084;-80
2023/07/11 10:06:02;;;;;;;50.10;28.58;;;;;;;30.68;100.00;101000.53;5048325;28;20080;-79
2023/07/11 10:08:31;;;;;;;48.63;26.88;;;;;;;30.67;100.00;101001.66;5046808;28;20053;-80
2023/07/11 10:11:03;;;;;;;126.35;36.20;;;;;;;31.02;100.00;101009.63;5044333;28;20500;-80
2023/07/11 10:13:30;;;;;;;50.03;27.95;;;;;;;30.88;100.00;101000.88;5048604;28;20428;-79
2023/07/11 10:15:59;;;;;;;29.63;26.67;;;;;;;30.80;99.70;101003.38;5039148;28;20056;-79
2023/07/11 10:18:28;;;;;;;35.03;27.48;;;;;;;30.30;100.00;101000.66;5041487;28;20440;-79
2023/07/11 10:20:59;;;;;;;34.65;31.67;;;;;;;31.15;100.00;100989.31;5040944;28;20057;-79
2023/07/11 10:23:27;;;;;;;44.22;36.80;;;;;;;31.27;98.65;100983.84;5043210;28;20437;-79
2023/07/11 10:25:55;;;;;;;41.15;38.30;;;;;;;30.54;100.00;100981.63;5041010;28;20282;-79
2023/07/11 10:28:28;;;;;;;39.00;35.80;;;;;;;31.89;94.68;100972.94;5041315;28;20040;-79
2023/07/11 10:30:58;;;;;;;40.70;37.63;;;;;;;31.43;98.10;100967.53;5045543;28;20041;-78
2023/07/11 10:33:30;;;;;;;38.13;35.42;;;;;;;32.11;95.73;100963.47;5051684;28;20041;-78
2023/07/11 10:36:10;;;;;;;37.15;34.45;;;;;;;32.12;90.55;100965.84;5051569;28;20041;-79
2023/07/11 10:38:49;;;;;;;27.92;25.88;;;;;;;31.18;100.00;100968.63;5049003;28;20060;-79
2023/07/11 10:41:21;;;;;;;26.83;24.70;;;;;;;31.39;100.00;100961.16;5049231;28;20059;-78
2023/07/11 10:43:51;;;;;;;25.55;23.35;;;;;;;31.66;100.00;100965.16;5051322;28;20045;-78
2023/07/11 10:46:32;;;;;;;26.33;23.90;;;;;;;32.49;97.98;100951.25;5048838;28;20133;-79
2023/07/11 10:49:06;;;;;;;26.70;24.30;;;;;;;32.72;87.66;100949.56;5049628;28;20451;-79
2023/07/11 10:51:40;;;;;;;43.35;39.95;;;;;;;32.92;88.85;100950.50;5051620;28;20049;-79
2023/07/11 10:54:13;;;;;;;41.88;38.92;;;;;;;32.61;86.70;100935.50;5050384;28;20067;-78
2023/07/11 10:56:44;;;;;;;35.70;33.30;;;;;;;32.26;100.00;100921.53;5050071;28;20128;-79
2023/07/11 10:59:13;;;;;;;39.72;36.88;;;;;;;32.73;88.09;100931.09;5048641;28;20055;-79
2023/07/11 11:01:47;;;;;;;39.40;36.90;;;;;;;33.13;88.34;100936.50;5041737;28;20061;-79
2023/07/11 11:04:36;;;;;;;42.00;39.00;;;;;;;32.74;90.15;100921.69;5043712;28;20044;-79
2023/07/11 11:07:11;;;;;;;38.38;35.88;;;;;;;32.63;100.00;100923.38;5043178;28;20103;-79
2023/07/11 11:09:44;;;;;;;26.85;24.85;;;;;;;32.67;100.00;100922.31;5046417;28;20041;-79
2023/07/11 11:12:22;;;;;;;28.42;26.02;;;;;;;33.01;92.12;100920.09;5041329;28;20052;-79